Time;durP1;ratioP1;P1;durP2;ratioP2;P2;SDS_P1;SDS_P2;PMS_P1;PMS_P2;Temp;Humidity;BMP_temperature;BMP_pressure;BME280_temperature;BME280_humidity;BME280_pressure;Samples;Min_cycle;Max_cycle;Signal;HPM_P1;HPM_P2
2022/01/03 00:02:22;;;;;;;3.07;1.23;;;;;;;10.87;85.14;98235.47;5095311;28;20255;-70
2022/01/03 00:04:50;;;;;;;1.97;1.20;;;;;;;10.96;83.87;98225.13;5095400;28;20212;-69
2022/01/03 00:07:17;;;;;;;5.13;1.50;;;;;;;11.26;81.68;98228.28;5096774;28;20211;-70
2022/01/03 00:09:44;;;;;;;4.87;1.40;;;;;;;11.20;82.05;98227.88;5102760;28;20270;-70
2022/01/03 00:12:11;;;;;;;2.53;1.30;;;;;;;11.17;82.15;98230.72;5108995;28;20589;-70
2022/01/03 00:14:37;;;;;;;3.83;1.07;;;;;;;11.22;81.85;98221.53;5103725;28;20215;-70
2022/01/03 00:17:04;;;;;;;1.43;1.00;;;;;;;11.26;81.17;98216.84;5099600;28;20730;-70
2022/01/03 00:19:30;;;;;;;6.07;1.40;;;;;;;11.14;81.93;98215.91;5100051;28;20220;-70
2022/01/03 00:22:05;;;;;;;1.87;1.07;;;;;;;11.09;81.98;98203.97;5099147;28;20229;-70
2022/01/03 00:24:33;;;;;;;2.97;1.10;;;;;;;11.25;80.46;98194.84;5097241;28;20217;-70
2022/01/03 00:27:03;;;;;;;3.70;1.40;;;;;;;11.22;80.64;98204.78;5100578;28;20217;-70
2022/01/03 00:29:42;;;;;;;3.67;1.17;;;;;;;11.18;80.66;98198.03;5098739;28;20264;-70
2022/01/03 00:32:09;;;;;;;2.70;1.20;;;;;;;11.08;81.79;98202.28;5098550;28;20215;-70
2022/01/03 00:34:37;;;;;;;3.47;1.10;;;;;;;11.12;80.62;98195.84;5098292;28;20662;-70
2022/01/03 00:37:06;;;;;;;3.93;1.30;;;;;;;11.08;81.19;98207.56;5097781;28;20241;-70
2022/01/03 00:39:32;;;;;;;2.73;0.90;;;;;;;11.08;80.36;98197.00;5098429;28;20220;-70
2022/01/03 00:41:59;;;;;;;2.53;1.17;;;;;;;11.21;79.43;98208.41;5098375;28;20226;-70
2022/01/03 00:44:26;;;;;;;3.53;1.30;;;;;;;11.20;79.33;98196.13;5098052;28;20710;-70
2022/01/03 00:46:53;;;;;;;3.33;1.10;;;;;;;11.28;78.70;98207.00;5100840;28;20225;-70
2022/01/03 00:49:20;;;;;;;4.07;1.23;;;;;;;11.38;77.17;98221.28;5097611;28;20215;-70
2022/01/03 00:51:46;;;;;;;3.87;1.37;;;;;;;11.35;76.58;98225.00;5096938;28;20568;-70
2022/01/03 00:54:14;;;;;;;4.80;1.37;;;;;;;11.23;77.65;98232.94;5098157;28;20222;-70
2022/01/03 00:56:47;;;;;;;3.47;1.30;;;;;;;11.23;77.27;98231.16;5100496;28;20211;-70
2022/01/03 00:59:15;;;;;;;2.80;1.20;;;;;;;11.24;76.31;98224.91;5097713;28;20249;-69
2022/01/03 01:01:47;;;;;;;3.17;1.40;;;;;;;11.26;76.04;98232.72;5097907;28;20213;-70
2022/01/03 01:04:14;;;;;;;2.90;0.90;;;;;;;11.27;75.54;98231.78;5098330;28;20583;-70
2022/01/03 01:06:41;;;;;;;3.23;1.20;;;;;;;11.14;76.49;98228.31;5099280;28;20221;-71
2022/01/03 01:09:09;;;;;;;4.27;1.00;;;;;;;11.01;77.17;98232.75;5100766;28;20581;-69
2022/01/03 01:11:41;;;;;;;4.03;1.30;;;;;;;10.96;77.15;98235.69;5111451;28;20215;-70
2022/01/03 01:14:08;;;;;;;5.90;1.60;;;;;;;10.97;77.84;98250.63;5110041;28;20224;-70
2022/01/03 01:16:35;;;;;;;2.47;1.00;;;;;;;10.95;77.88;98238.47;5107077;28;20703;-70
2022/01/03 01:19:03;;;;;;;3.43;1.00;;;;;;;10.86;78.93;98234.66;5111011;28;20245;-70
2022/01/03 01:21:29;;;;;;;4.43;1.47;;;;;;;10.90;78.23;98237.94;5111497;28;20211;-70
2022/01/03 01:23:57;;;;;;;3.63;1.17;;;;;;;10.92;78.81;98228.94;5110124;28;20211;-70
2022/01/03 01:29:11;;;;;;;2.87;1.20;;;;;;;10.99;78.67;98239.94;5105707;28;20210;-70
2022/01/03 01:31:44;;;;;;;5.73;1.67;;;;;;;10.96;79.13;98246.28;5097149;28;20233;-70
2022/01/03 01:34:15;;;;;;;2.37;1.17;;;;;;;10.91;80.09;98247.56;5096917;28;20211;-70
2022/01/03 01:36:43;;;;;;;1.97;1.07;;;;;;;10.85;80.80;98261.19;5095714;28;20211;-70
2022/01/03 01:39:10;;;;;;;2.67;1.10;;;;;;;10.79;80.86;98261.59;5095577;28;20257;-69
2022/01/03 01:41:43;;;;;;;2.87;1.17;;;;;;;10.77;81.28;98260.88;5093927;28;20269;-70
2022/01/03 01:44:13;;;;;;;4.77;1.10;;;;;;;10.87;79.78;98246.06;5097130;28;20300;-71
2022/01/03 01:46:46;;;;;;;2.80;1.07;;;;;;;10.86;81.15;98253.16;5095462;28;20240;-70
2022/01/03 01:49:16;;;;;;;2.20;1.27;;;;;;;10.89;79.75;98249.47;5095498;28;20234;-70
2022/01/03 01:51:46;;;;;;;2.47;1.10;;;;;;;10.93;79.90;98257.06;5095849;28;20216;-70
2022/01/03 01:54:15;;;;;;;2.77;1.10;;;;;;;10.88;80.53;98237.19;5097073;28;20215;-70
2022/01/03 01:56:54;;;;;;;4.60;1.30;;;;;;;10.88;80.73;98226.63;5096698;28;20264;-70
2022/01/03 01:59:29;;;;;;;3.00;1.33;;;;;;;10.90;80.95;98236.13;5097934;28;20242;-70
2022/01/03 02:02:03;;;;;;;2.70;1.17;;;;;;;10.92;80.90;98241.31;5096923;28;20220;-70
2022/01/03 02:04:35;;;;;;;4.40;1.13;;;;;;;10.90;81.19;98251.16;5096690;28;20221;-70
2022/01/03 02:07:26;;;;;;;2.57;1.10;;;;;;;10.81;82.21;98257.06;5096764;28;20215;-70
2022/01/03 02:10:03;;;;;;;4.13;1.30;;;;;;;10.77;82.53;98243.19;5072749;28;20221;-70
2022/01/03 02:12:35;;;;;;;2.90;1.13;;;;;;;10.73;82.21;98243.53;5096675;28;20580;-70
2022/01/03 02:15:04;;;;;;;4.57;1.40;;;;;;;10.83;81.41;98250.72;5097540;28;20217;-70
2022/01/03 02:17:31;;;;;;;4.30;1.13;;;;;;;10.89;80.46;98239.72;5097866;28;20243;-70
2022/01/03 02:20:08;;;;;;;4.37;1.30;;;;;;;10.94;80.83;98248.19;5096581;28;20211;-70
2022/01/03 02:22:35;;;;;;;3.03;1.20;;;;;;;10.91;80.06;98255.47;5096241;28;20208;-70
2022/01/03 02:25:01;;;;;;;3.33;1.30;;;;;;;11.05;78.59;98250.09;5098370;28;20211;-70
2022/01/03 02:27:28;;;;;;;3.13;1.47;;;;;;;11.07;79.27;98237.63;5096738;28;20214;-70
2022/01/03 02:29:54;;;;;;;3.20;1.20;;;;;;;11.13;79.18;98250.41;5095964;28;20252;-70
2022/01/03 02:32:21;;;;;;;5.27;1.20;;;;;;;11.13;79.35;98247.78;5096169;28;20218;-70
2022/01/03 02:34:47;;;;;;;2.37;1.13;;;;;;;11.07;80.57;98248.19;5095927;28;20226;-70
2022/01/03 02:37:16;;;;;;;3.83;1.20;;;;;;;11.12;79.88;98251.38;5096254;28;20237;-70
2022/01/03 02:39:43;;;;;;;5.20;1.23;;;;;;;11.03;81.55;98254.66;5096127;28;20234;-70
2022/01/03 02:42:10;;;;;;;4.23;1.73;;;;;;;10.95;81.87;98254.34;5097777;28;20234;-72
2022/01/03 02:44:37;;;;;;;2.97;1.33;;;;;;;10.91;82.71;98252.84;5099655;28;20221;-72
2022/01/03 02:47:04;;;;;;;4.87;1.40;;;;;;;10.84;83.45;98262.16;5097398;28;20232;-73
2022/01/03 02:49:30;;;;;;;2.57;1.30;;;;;;;10.82;83.59;98266.72;5095890;28;20215;-72
2022/01/03 02:51:57;;;;;;;4.37;1.30;;;;;;;10.72;84.37;98268.25;5095713;28;20703;-72
2022/01/03 02:54:25;;;;;;;2.80;1.20;;;;;;;10.64;85.45;98270.59;5096834;28;20217;-73
2022/01/03 02:56:52;;;;;;;2.93;1.10;;;;;;;10.60;84.91;98269.09;5097418;28;20213;-72
2022/01/03 02:59:19;;;;;;;2.20;1.23;;;;;;;10.51;85.00;98259.16;5095335;28;20730;-70
2022/01/03 03:01:48;;;;;;;3.47;1.20;;;;;;;10.52;84.98;98256.38;5094459;28;20723;-69
2022/01/03 03:04:15;;;;;;;3.10;1.20;;;;;;;10.54;83.34;98269.50;5097090;28;20562;-72
2022/01/03 03:06:42;;;;;;;3.90;1.20;;;;;;;10.44;84.54;98273.69;5096714;28;20222;-72
2022/01/03 03:09:08;;;;;;;3.77;1.20;;;;;;;10.34;85.25;98277.91;5099150;28;20208;-72
2022/01/03 03:11:39;;;;;;;2.40;1.23;;;;;;;10.28;84.99;98275.66;5109591;28;20237;-72
2022/01/03 03:14:05;;;;;;;3.07;1.10;;;;;;;10.33;83.39;98276.22;5107961;28;20221;-72
2022/01/03 03:16:32;;;;;;;4.40;1.17;;;;;;;10.29;84.21;98285.28;5106773;28;20216;-72
2022/01/03 03:18:58;;;;;;;2.97;1.17;;;;;;;10.31;83.53;98273.66;5109357;28;20241;-71
2022/01/03 03:21:29;;;;;;;5.30;1.27;;;;;;;10.38;82.35;98276.75;5109410;28;20210;-70
2022/01/03 03:23:55;;;;;;;3.03;1.30;;;;;;;10.33;82.56;98277.06;5108022;28;20215;-69
2022/01/03 03:26:22;;;;;;;3.43;1.20;;;;;;;10.33;82.70;98276.22;5104829;28;20585;-70
2022/01/03 03:28:49;;;;;;;4.27;1.20;;;;;;;10.39;82.35;98281.94;5108984;28;20681;-70
2022/01/03 03:31:16;;;;;;;5.00;1.30;;;;;;;10.46;81.21;98271.81;5108833;28;20263;-70
2022/01/03 03:33:43;;;;;;;4.97;1.50;;;;;;;10.45;81.11;98278.06;5108148;28;20562;-70
2022/01/03 03:36:09;;;;;;;3.73;1.30;;;;;;;10.46;81.14;98277.09;5106374;28;20224;-70
2022/01/03 03:38:36;;;;;;;3.40;1.40;;;;;;;10.53;80.48;98268.63;5109071;28;20261;-70
2022/01/03 03:41:02;;;;;;;3.40;1.10;;;;;;;10.70;79.18;98264.88;5109070;28;20270;-70
2022/01/03 03:43:30;;;;;;;2.70;1.30;;;;;;;10.75;79.01;98262.75;5108684;28;20230;-70
2022/01/03 03:45:57;;;;;;;6.20;1.60;;;;;;;10.65;79.70;98277.56;5105614;28;20692;-70
2022/01/03 03:48:24;;;;;;;4.80;1.10;;;;;;;10.69;78.75;98268.44;5109341;28;20232;-70
2022/01/03 03:50:50;;;;;;;3.43;1.00;;;;;;;10.69;78.98;98268.44;5113026;28;20214;-70
2022/01/03 03:53:18;;;;;;;4.00;1.50;;;;;;;10.58;79.79;98265.72;5110874;28;20690;-70
2022/01/03 03:55:45;;;;;;;5.50;1.97;;;;;;;10.53;79.94;98275.75;5109447;28;20219;-70
2022/01/03 03:58:13;;;;;;;3.37;1.17;;;;;;;10.42;80.87;98267.66;5111208;28;20223;-70
2022/01/03 04:00:39;;;;;;;3.63;1.50;;;;;;;10.40;80.97;98272.22;5099087;28;20298;-70
2022/01/03 04:03:07;;;;;;;6.33;1.40;;;;;;;10.34;81.42;98262.88;5098983;28;20215;-69
2022/01/03 04:05:34;;;;;;;2.80;1.27;;;;;;;10.41;80.71;98277.38;5101492;28;20220;-70
2022/01/03 04:08:00;;;;;;;3.67;1.20;;;;;;;10.39;80.37;98287.22;5099034;28;20240;-70
2022/01/03 04:10:27;;;;;;;3.10;1.20;;;;;;;10.30;81.21;98286.97;5111163;28;20210;-70
2022/01/03 04:12:53;;;;;;;4.47;1.47;;;;;;;10.26;81.56;98282.81;5112596;28;20210;-70
2022/01/03 04:15:20;;;;;;;3.40;1.10;;;;;;;10.34;81.16;98278.75;5108872;28;20217;-70
2022/01/03 04:17:46;;;;;;;3.90;1.43;;;;;;;10.42;80.61;98283.53;5110816;28;20690;-70
2022/01/03 04:20:15;;;;;;;6.57;1.40;;;;;;;10.55;79.32;98281.75;5112426;28;20244;-71
2022/01/03 04:22:42;;;;;;;3.77;1.50;;;;;;;10.59;78.84;98278.81;5112388;28;20269;-70
2022/01/03 04:25:10;;;;;;;3.87;1.27;;;;;;;10.61;78.35;98276.06;5109063;28;20262;-70
2022/01/03 04:27:37;;;;;;;4.83;1.17;;;;;;;10.46;79.85;98287.66;5112153;28;20217;-70
2022/01/03 04:30:05;;;;;;;2.37;1.00;;;;;;;10.34;80.64;98278.75;5112095;28;20256;-70
2022/01/03 04:32:31;;;;;;;5.17;1.40;;;;;;;10.26;82.22;98285.47;5111993;28;20214;-70
2022/01/03 04:34:58;;;;;;;3.67;1.23;;;;;;;10.38;82.13;98282.88;5108793;28;20214;-70
2022/01/03 04:37:26;;;;;;;5.87;1.30;;;;;;;10.46;82.69;98292.94;5111510;28;20222;-70
2022/01/03 04:39:52;;;;;;;5.53;1.30;;;;;;;10.55;82.87;98292.31;5111974;28;20245;-70
2022/01/03 04:42:18;;;;;;;4.80;1.20;;;;;;;10.57;83.77;98304.50;5111986;28;20219;-70
2022/01/03 04:44:45;;;;;;;6.53;1.37;;;;;;;10.58;86.27;98303.53;5107426;28;20211;-70
2022/01/03 04:47:11;;;;;;;4.33;1.30;;;;;;;10.47;88.94;98297.28;5111094;28;20218;-69
2022/01/03 04:49:38;;;;;;;2.43;1.10;;;;;;;10.34;92.69;98320.19;5111645;28;20694;-70
2022/01/03 04:52:05;;;;;;;4.80;1.23;;;;;;;10.16;94.92;98311.63;5111807;28;20263;-70
2022/01/03 04:54:32;;;;;;;2.63;1.13;;;;;;;9.95;98.94;98317.41;5109128;28;20208;-70
2022/01/03 04:56:59;;;;;;;3.80;1.50;;;;;;;9.70;100.00;98325.19;5110542;28;20218;-69
2022/01/03 04:59:26;;;;;;;3.00;1.10;;;;;;;9.45;100.00;98327.66;5111663;28;20614;-68
2022/01/03 05:01:53;;;;;;;4.90;1.17;;;;;;;9.20;100.00;98327.47;5110689;28;20215;-66
2022/01/03 05:04:19;;;;;;;5.67;1.20;;;;;;;9.06;100.00;98330.09;5109195;28;20212;-66
2022/01/03 05:06:46;;;;;;;2.77;1.00;;;;;;;8.86;100.00;98322.50;5109839;28;20225;-66
2022/01/03 05:09:12;;;;;;;4.87;1.40;;;;;;;8.73;100.00;98316.25;5106381;28;20219;-66
2022/01/03 05:11:41;;;;;;;2.33;0.90;;;;;;;8.70;100.00;98316.47;5096192;28;20218;-66
2022/01/03 05:14:08;;;;;;;3.13;1.43;;;;;;;8.62;100.00;98313.44;5099655;28;20689;-66
2022/01/03 05:16:34;;;;;;;2.17;1.00;;;;;;;8.58;100.00;98320.63;5098040;28;20219;-66
2022/01/03 05:19:01;;;;;;;3.10;1.03;;;;;;;8.57;100.00;98336.56;5097669;28;20243;-66
2022/01/03 05:21:27;;;;;;;5.90;1.10;;;;;;;8.58;100.00;98340.88;5097783;28;20226;-66
2022/01/03 05:23:54;;;;;;;8.10;1.77;;;;;;;8.62;100.00;98350.31;5099098;28;20212;-66
2022/01/03 05:26:20;;;;;;;3.67;1.00;;;;;;;8.61;100.00;98349.47;5098613;28;20213;-66
2022/01/03 05:28:48;;;;;;;2.20;1.00;;;;;;;8.64;100.00;98346.63;5097531;28;20220;-66
2022/01/03 05:31:15;;;;;;;1.50;0.90;;;;;;;8.64;100.00;98328.19;5097698;28;20262;-66
2022/01/03 05:33:41;;;;;;;4.17;1.47;;;;;;;8.69;100.00;98333.22;5098289;28;20222;-66
2022/01/03 05:36:08;;;;;;;3.50;1.13;;;;;;;8.72;100.00;98335.66;5096912;28;20221;-66
2022/01/03 05:38:35;;;;;;;2.07;1.00;;;;;;;8.70;100.00;98316.47;5097210;28;20218;-66
2022/01/03 05:41:01;;;;;;;3.53;1.27;;;;;;;8.66;100.00;98314.94;5097095;28;20579;-66
2022/01/03 05:43:27;;;;;;;4.40;1.40;;;;;;;8.60;100.00;98310.88;5097645;28;20211;-66
2022/01/03 05:45:55;;;;;;;5.53;1.30;;;;;;;8.54;100.00;98323.56;5098883;28;20697;-66
2022/01/03 05:48:22;;;;;;;3.50;1.30;;;;;;;8.52;100.00;98314.91;5097238;28;20244;-66
2022/01/03 05:50:48;;;;;;;4.57;1.50;;;;;;;8.53;100.00;98329.75;5097103;28;20210;-66
2022/01/03 05:53:15;;;;;;;5.83;1.53;;;;;;;8.62;100.00;98337.16;5097058;28;20223;-66
2022/01/03 05:55:41;;;;;;;3.63;1.40;;;;;;;8.71;100.00;98328.69;5099505;28;20226;-66
2022/01/03 05:58:08;;;;;;;3.30;1.30;;;;;;;8.74;100.00;98339.03;5096637;28;20212;-66
2022/01/03 06:00:34;;;;;;;5.73;1.23;;;;;;;8.75;100.00;98351.28;5096899;28;20234;-66
2022/01/03 06:03:02;;;;;;;4.57;1.40;;;;;;;8.73;100.00;98337.34;5095159;28;20208;-66
2022/01/03 06:05:41;;;;;;;4.60;1.60;;;;;;;8.72;100.00;98331.25;5099220;28;20206;-66
2022/01/03 06:08:08;;;;;;;1.83;1.10;;;;;;;8.73;100.00;98337.34;5096378;28;20260;-66
2022/01/03 06:10:39;;;;;;;3.67;1.47;;;;;;;8.64;100.00;98335.25;5109996;28;20209;-65
2022/01/03 06:13:05;;;;;;;5.97;1.50;;;;;;;8.60;100.00;98352.16;5108145;28;20222;-65
2022/01/03 06:15:32;;;;;;;5.07;1.47;;;;;;;8.57;100.00;98347.09;5107876;28;20688;-65
2022/01/03 06:17:59;;;;;;;5.07;1.70;;;;;;;8.53;100.00;98348.19;5109889;28;20215;-66
2022/01/03 06:20:26;;;;;;;6.63;1.87;;;;;;;8.58;100.00;98340.88;5110212;28;20579;-65
2022/01/03 06:22:53;;;;;;;5.30;1.40;;;;;;;8.60;100.00;98347.75;5108667;28;20210;-65
2022/01/03 06:25:19;;;;;;;4.23;1.63;;;;;;;8.64;100.00;98345.81;5107367;28;20226;-65
2022/01/03 06:27:46;;;;;;;3.90;1.40;;;;;;;8.67;100.00;98341.19;5105116;28;20217;-67
2022/01/03 06:30:13;;;;;;;6.03;1.90;;;;;;;8.72;100.00;98335.66;5094803;28;20239;-66
2022/01/03 06:32:39;;;;;;;5.07;1.60;;;;;;;8.69;100.00;98325.31;5094490;28;20211;-66
2022/01/03 06:35:07;;;;;;;4.13;1.20;;;;;;;8.66;100.00;98320.19;5095589;28;20229;-66
2022/01/03 06:37:35;;;;;;;5.83;1.50;;;;;;;8.57;100.00;98316.31;5094891;28;20216;-66
2022/01/03 06:40:01;;;;;;;5.40;1.70;;;;;;;8.53;100.00;98311.31;5094327;28;20243;-65
2022/01/03 06:42:28;;;;;;;4.20;1.20;;;;;;;8.57;100.00;98315.47;5094190;28;20219;-65
2022/01/03 06:44:54;;;;;;;5.37;1.60;;;;;;;8.54;100.00;98326.19;5095356;28;20250;-66
2022/01/03 06:47:21;;;;;;;6.23;1.80;;;;;;;8.53;100.00;98313.94;5094151;28;20212;-66
2022/01/03 06:49:48;;;;;;;6.00;1.73;;;;;;;8.47;100.00;98324.84;5094481;28;20238;-66
2022/01/03 06:52:14;;;;;;;6.70;1.57;;;;;;;8.58;100.00;98312.75;5094119;28;20218;-66
2022/01/03 06:54:43;;;;;;;8.43;1.70;;;;;;;8.56;100.00;98314.63;5093877;28;20580;-65
2022/01/03 06:57:09;;;;;;;4.97;1.60;;;;;;;8.57;100.00;98305.78;5093956;28;20222;-65
2022/01/03 06:59:36;;;;;;;6.83;1.70;;;;;;;8.61;100.00;98307.31;5094199;28;20241;-65
2022/01/03 07:02:03;;;;;;;5.40;1.40;;;;;;;8.60;100.00;98302.13;5094257;28;20216;-65
2022/01/03 07:04:30;;;;;;;5.07;1.53;;;;;;;8.55;100.00;98291.00;5095257;28;20238;-65
2022/01/03 07:06:57;;;;;;;4.13;1.40;;;;;;;8.59;100.00;98303.06;5095831;28;20219;-65
2022/01/03 07:09:23;;;;;;;5.87;1.47;;;;;;;8.61;100.00;98301.19;5102767;28;20210;-65
2022/01/03 07:11:51;;;;;;;6.37;1.70;;;;;;;8.69;100.00;98310.31;5109121;28;20700;-66
2022/01/03 07:19:54;;;;;;;3.27;1.47;;;;;;;8.84;100.00;98322.63;5094356;28;20246;-66
2022/01/03 07:22:21;;;;;;;5.13;1.70;;;;;;;8.89;100.00;98339.00;5096842;28;20214;-66
2022/01/03 07:24:48;;;;;;;6.20;1.67;;;;;;;8.84;100.00;98313.84;5097912;28;20211;-66
2022/01/03 07:27:16;;;;;;;5.47;1.57;;;;;;;8.79;100.00;98315.91;5099827;28;20284;-66
2022/01/03 07:29:43;;;;;;;3.80;1.60;;;;;;;8.78;100.00;98314.22;5100630;28;20243;-66
2022/01/03 07:32:10;;;;;;;8.00;1.97;;;;;;;8.80;100.00;98320.22;5101334;28;20215;-66
2022/01/03 07:34:37;;;;;;;4.53;1.63;;;;;;;8.84;100.00;98321.75;5099793;28;20212;-66
2022/01/03 07:37:04;;;;;;;6.03;1.83;;;;;;;8.75;100.00;98327.59;5099709;28;20575;-66
2022/01/03 07:39:31;;;;;;;7.53;1.87;;;;;;;8.75;100.00;98320.50;5099869;28;20230;-67
2022/01/03 07:41:58;;;;;;;6.70;1.70;;;;;;;8.73;100.00;98306.59;5102403;28;20267;-66
2022/01/03 07:44:26;;;;;;;5.73;1.90;;;;;;;8.76;100.00;98311.66;5113029;28;20211;-67
2022/01/03 07:46:54;;;;;;;7.23;1.70;;;;;;;8.76;100.00;98316.09;5111518;28;20218;-67
2022/01/03 07:49:20;;;;;;;7.43;1.87;;;;;;;8.74;100.00;98308.28;5112445;28;20251;-67
2022/01/03 07:51:47;;;;;;;6.53;1.90;;;;;;;8.77;100.00;98312.53;5109985;28;20239;-67
2022/01/03 07:54:13;;;;;;;5.90;1.90;;;;;;;8.77;100.00;98313.38;5113015;28;20234;-67
2022/01/03 07:56:40;;;;;;;6.10;1.60;;;;;;;8.82;100.00;98321.00;5113144;28;20214;-68
2022/01/03 07:59:06;;;;;;;4.20;1.40;;;;;;;8.84;100.00;98305.94;5112584;28;20212;-68
2022/01/03 08:01:34;;;;;;;7.33;1.83;;;;;;;8.83;100.00;98302.47;5111976;28;20214;-67
2022/01/03 08:04:01;;;;;;;4.23;1.30;;;;;;;8.87;100.00;98298.69;5112687;28;20578;-67
2022/01/03 08:06:29;;;;;;;4.30;1.40;;;;;;;8.95;100.00;98300.88;5112766;28;20216;-67
2022/01/03 08:08:55;;;;;;;7.00;1.60;;;;;;;8.98;100.00;98304.19;5106322;28;20241;-68
2022/01/03 08:11:22;;;;;;;3.57;1.90;;;;;;;9.02;100.00;98304.84;5098041;28;20215;-67
2022/01/03 08:13:48;;;;;;;6.10;1.90;;;;;;;9.05;100.00;98299.41;5096192;28;20217;-67
2022/01/03 08:16:15;;;;;;;4.10;1.40;;;;;;;9.06;100.00;98309.00;5097238;28;20215;-67
2022/01/03 08:18:43;;;;;;;6.10;1.90;;;;;;;9.06;100.00;98303.72;5096902;28;20230;-67
2022/01/03 08:21:10;;;;;;;3.70;1.50;;;;;;;9.06;100.00;98301.09;5098021;28;20588;-67
2022/01/03 08:23:37;;;;;;;6.27;1.60;;;;;;;9.06;100.00;98309.00;5098741;28;20218;-67
2022/01/03 08:26:03;;;;;;;5.87;1.70;;;;;;;9.04;100.00;98329.31;5098686;28;20220;-68
2022/01/03 08:28:30;;;;;;;6.27;1.83;;;;;;;9.02;100.00;98323.28;5098684;28;20222;-67
2022/01/03 08:30:56;;;;;;;6.97;1.70;;;;;;;9.00;100.00;98325.19;5101452;28;20238;-67
2022/01/03 08:33:23;;;;;;;6.80;1.90;;;;;;;8.99;100.00;98323.50;5098533;28;20229;-67
2022/01/03 08:35:51;;;;;;;5.77;1.73;;;;;;;8.95;100.00;98316.69;5098161;28;20700;-68
2022/01/03 08:38:17;;;;;;;2.83;1.70;;;;;;;8.97;100.00;98309.53;5096847;28;20208;-68
2022/01/03 08:40:43;;;;;;;5.27;1.53;;;;;;;9.02;100.00;98313.63;5101166;28;20665;-68
2022/01/03 08:43:10;;;;;;;4.53;1.70;;;;;;;9.04;100.00;98316.13;5111066;28;20222;-68
2022/01/03 08:45:36;;;;;;;6.23;1.53;;;;;;;9.08;100.00;98315.03;5111677;28;20692;-68
2022/01/03 08:48:03;;;;;;;4.40;1.40;;;;;;;9.08;100.00;98317.66;5108523;28;20223;-67
2022/01/03 08:50:30;;;;;;;4.63;1.50;;;;;;;9.12;100.00;98313.91;5108665;28;20217;-67
2022/01/03 08:52:57;;;;;;;2.70;1.70;;;;;;;9.08;100.00;98320.28;5110356;28;20215;-68
2022/01/03 08:55:25;;;;;;;3.83;1.23;;;;;;;9.11;100.00;98322.75;5111017;28;20236;-68
2022/01/03 08:57:52;;;;;;;7.33;1.80;;;;;;;9.12;100.00;98321.81;5110179;28;20214;-68
2022/01/03 09:00:20;;;;;;;6.03;1.70;;;;;;;9.19;100.00;98317.84;5100308;28;20247;-67
2022/01/03 09:02:46;;;;;;;1.90;1.23;;;;;;;9.21;100.00;98308.91;5096978;28;20218;-67
2022/01/03 09:05:13;;;;;;;5.43;1.53;;;;;;;9.29;100.00;98321.63;5094863;28;20215;-68
2022/01/03 09:07:39;;;;;;;3.00;1.60;;;;;;;9.28;100.00;98317.28;5096591;28;20213;-68
2022/01/03 09:10:08;;;;;;;3.93;1.60;;;;;;;9.28;100.00;98306.75;5108341;28;20217;-68
2022/01/03 09:12:35;;;;;;;4.87;1.80;;;;;;;9.24;100.00;98308.72;5108226;28;20215;-68
2022/01/03 09:15:02;;;;;;;2.93;1.40;;;;;;;9.29;100.00;98311.06;5110176;28;20216;-68
2022/01/03 09:17:29;;;;;;;4.90;2.07;;;;;;;9.37;100.00;98316.75;5109773;28;20298;-68
2022/01/03 09:19:55;;;;;;;5.47;2.10;;;;;;;9.39;100.00;98309.56;5108363;28;20697;-68
2022/01/03 09:22:27;;;;;;;6.40;2.40;;;;;;;9.36;100.00;98301.84;5107517;28;20216;-68
2022/01/03 09:28:48;;;;;;;3.57;1.90;;;;;;;9.38;100.00;98302.59;5109860;28;20688;-68
2022/01/03 09:30:27;;;;;;;5.87;2.13;;;;;;;9.49;100.00;98302.78;5107780;28;20247;-68
2022/01/03 09:32:53;;;;;;;6.87;2.80;;;;;;;9.51;100.00;98296.47;5109628;28;20216;-68
2022/01/03 09:35:21;;;;;;;5.93;2.27;;;;;;;9.50;100.00;98288.66;5109681;28;20213;-68
2022/01/03 09:37:48;;;;;;;6.43;2.20;;;;;;;9.53;100.00;98280.53;5106561;28;20218;-68
2022/01/03 09:40:15;;;;;;;7.20;2.30;;;;;;;9.54;100.00;98279.63;5108952;28;20237;-68
2022/01/03 09:42:45;;;;;;;6.73;2.07;;;;;;;9.52;100.00;98292.03;5109319;28;20720;-68
2022/01/03 09:45:12;;;;;;;5.30;2.10;;;;;;;9.54;100.00;98280.44;5109543;28;20221;-68
2022/01/03 09:47:42;;;;;;;6.83;2.30;;;;;;;9.54;100.00;98285.72;5105314;28;20239;-68
2022/01/03 09:50:09;;;;;;;4.93;1.90;;;;;;;9.60;100.00;98289.78;5109071;28;20252;-68
2022/01/03 09:52:37;;;;;;;5.63;1.90;;;;;;;9.65;100.00;98287.69;5108533;28;20243;-69
2022/01/03 09:55:05;;;;;;;5.13;2.20;;;;;;;9.70;100.00;98290.88;5109265;28;20208;-69
2022/01/03 09:57:32;;;;;;;3.90;2.00;;;;;;;9.73;100.00;98275.69;5104038;28;20213;-69
2022/01/03 10:00:01;;;;;;;5.43;2.10;;;;;;;9.82;100.00;98287.47;5109012;28;20236;-69
2022/01/03 10:02:28;;;;;;;5.60;1.80;;;;;;;9.85;100.00;98284.66;5109043;28;20226;-69
2022/01/03 10:04:55;;;;;;;4.63;2.23;;;;;;;9.86;100.00;98287.16;5109149;28;20226;-69
2022/01/03 10:07:22;;;;;;;4.10;1.90;;;;;;;9.90;100.00;98283.41;5105436;28;20211;-69
2022/01/03 10:09:49;;;;;;;5.53;2.00;;;;;;;9.94;100.00;98279.63;5102202;28;20206;-69
2022/01/03 10:12:19;;;;;;;5.03;2.00;;;;;;;9.96;100.00;98287.41;5099624;28;20308;-69
2022/01/03 10:14:46;;;;;;;4.57;1.90;;;;;;;10.01;100.00;98285.34;5099191;28;20223;-69
2022/01/03 10:17:13;;;;;;;4.47;1.80;;;;;;;10.06;100.00;98283.28;5097885;28;20217;-69
2022/01/03 10:19:51;;;;;;;5.10;1.83;;;;;;;10.12;100.00;98286.38;5095292;28;20209;-70
2022/01/03 10:22:22;;;;;;;3.73;1.60;;;;;;;10.21;100.00;98292.88;5095168;28;20218;-69
2022/01/03 10:24:49;;;;;;;4.20;1.70;;;;;;;10.24;100.00;98274.16;5095081;28;20218;-68
2022/01/03 10:27:16;;;;;;;3.27;1.40;;;;;;;10.31;100.00;98272.81;5095771;28;20803;-69
2022/01/03 10:29:43;;;;;;;3.17;1.80;;;;;;;10.37;100.00;98272.41;5094884;28;20249;-68
2022/01/03 10:32:12;;;;;;;3.63;2.20;;;;;;;10.40;100.00;98273.06;5094808;28;20704;-68
2022/01/03 10:34:40;;;;;;;3.43;1.87;;;;;;;10.46;100.00;98267.34;5096664;28;20586;-68
2022/01/03 10:37:12;;;;;;;3.23;1.70;;;;;;;10.51;100.00;98267.09;5095887;28;20279;-68
2022/01/03 10:39:38;;;;;;;4.47;1.40;;;;;;;10.54;100.00;98280.06;5094738;28;20325;-68
2022/01/03 10:42:16;;;;;;;3.73;1.67;;;;;;;10.58;100.00;98276.28;5091122;28;20238;-68
2022/01/03 10:44:44;;;;;;;3.40;1.40;;;;;;;10.61;100.00;98271.63;5097604;28;20216;-68
2022/01/03 10:47:13;;;;;;;3.87;1.70;;;;;;;10.63;100.00;98263.59;5094763;28;20210;-68
2022/01/03 10:49:47;;;;;;;3.13;1.73;;;;;;;10.68;100.00;98266.78;5093306;28;20233;-68
2022/01/03 10:52:16;;;;;;;3.80;1.40;;;;;;;10.70;100.00;98254.31;5095502;28;20621;-68
2022/01/03 10:54:44;;;;;;;3.70;1.83;;;;;;;10.74;100.00;98256.63;5096535;28;20210;-68
2022/01/03 10:57:11;;;;;;;5.07;1.63;;;;;;;10.77;100.00;98260.88;5094727;28;20221;-69
2022/01/03 10:59:38;;;;;;;4.07;1.70;;;;;;;10.80;100.00;98250.94;5093890;28;20218;-69
2022/01/03 11:02:08;;;;;;;4.63;1.97;;;;;;;10.86;100.00;98255.81;5095224;28;20308;-69
2022/01/03 11:04:43;;;;;;;6.57;1.90;;;;;;;10.91;100.00;98248.41;5096274;28;20213;-69
2022/01/03 11:13:06;;;;;;;2.80;1.50;;;;;;;11.06;100.00;98235.94;5094278;28;20275;-68
2022/01/03 11:15:32;;;;;;;6.67;1.83;;;;;;;11.13;100.00;98237.19;5094506;28;20221;-68
2022/01/03 11:18:12;;;;;;;3.90;1.43;;;;;;;11.20;100.00;98228.69;5094961;28;20235;-68
2022/01/03 11:20:38;;;;;;;3.90;1.50;;;;;;;11.26;100.00;98224.78;5094335;28;20244;-68
2022/01/03 11:23:07;;;;;;;4.50;1.60;;;;;;;11.29;100.00;98221.91;5094387;28;20325;-68
2022/01/03 11:25:35;;;;;;;2.93;1.60;;;;;;;11.34;100.00;98225.09;5094457;28;20216;-68
2022/01/03 11:28:02;;;;;;;2.70;1.50;;;;;;;11.39;100.00;98222.97;5102515;28;20218;-68
2022/01/03 11:30:29;;;;;;;4.20;1.60;;;;;;;11.45;100.00;98211.94;5094437;28;20263;-68
2022/01/03 11:32:56;;;;;;;3.53;1.50;;;;;;;11.46;100.00;98208.34;5094164;28;20241;-68
2022/01/03 11:35:23;;;;;;;3.20;1.57;;;;;;;11.51;100.00;98200.94;5094973;28;20267;-68
2022/01/03 11:37:51;;;;;;;4.87;1.40;;;;;;;11.52;98.95;98202.63;5097012;28;20209;-68
2022/01/03 11:40:19;;;;;;;5.00;1.50;;;;;;;11.61;97.66;98202.00;5094347;28;20218;-68
2022/01/03 11:42:48;;;;;;;3.17;1.43;;;;;;;11.67;97.64;98194.44;5092460;28;20295;-68
2022/01/03 11:45:15;;;;;;;4.20;1.43;;;;;;;11.69;97.85;98191.69;5094231;28;20296;-68
2022/01/03 11:47:41;;;;;;;5.80;1.80;;;;;;;11.67;96.51;98191.78;5093633;28;20589;-68
2022/01/03 11:50:10;;;;;;;2.73;1.80;;;;;;;11.73;96.14;98175.47;5105153;28;20218;-68
2022/01/03 11:52:40;;;;;;;3.93;1.43;;;;;;;11.78;95.04;98169.81;5092450;28;20222;-68